| time (UTC) | temp F | wind direction | speed MPH | gust MPH | rain 1hr in | rain 24hr in | rain mn in | humidity % | barometer mb |
| 20260903104307 | 76 | 0.0 | 0.0 | 0.00 | 0.00 | 0.00 | 56 | 996.4 | |
| 20260903102732 | 76 | 0.0 | 0.0 | 0.00 | 0.00 | 0.00 | 57 | 996.6 | |
| 20260903095622 | 78 | 0.0 | 0.0 | 0.00 | 0.00 | 0.00 | 55 | 996.7 | |
| 20260903094047 | 78 | 0.0 | 0.0 | 0.00 | 0.00 | 0.00 | 57 | 996.7 | |
| 20260903092512 | 76 | 0.0 | 0.0 | 0.00 | 0.00 | 0.00 | 60 | 996.8 | |
| 20260903090937 | 74 | 0.0 | 0.0 | 0.00 | 0.00 | 0.00 | 62 | 996.8 | |
| 20260903085402 | 74 | 0.0 | 0.0 | 0.00 | 0.00 | 0.00 | 63 | 997.1 | |
| 20260903083827 | 73 | 0.0 | 0.0 | 0.00 | 0.00 | 0.00 | 64 | 997.3 | |
| 20260903082252 | 73 | 0.0 | 0.0 | 0.00 | 0.00 | 0.00 | 65 | 997.3 | |
| 20260903080718 | 73 | 0.0 | 0.0 | 0.00 | 0.00 | 0.00 | 67 | 997.6 | |
| 20260903075143 | 70 | 0.0 | 0.0 | 0.00 | 0.00 | 0.00 | 71 | 997.6 | |
| 20260903073608 | 70 | 0.0 | 0.0 | 0.00 | 0.00 | 0.00 | 72 | 997.8 | |
| 20260903072033 | 67 | 0.0 | 0.0 | 0.00 | 0.00 | 0.00 | 76 | 997.9 | |
| 20260903070458 | 65 | 0.0 | 0.0 | 0.00 | 0.00 | 0.00 | 80 | 998.1 | |
| 20260903064923 | 64 | 0.0 | 0.0 | 0.00 | 0.00 | 0.00 | 82 | 997.8 | |
| 20260903063348 | 62 | 0.0 | 0.0 | 0.00 | 0.00 | 0.00 | 85 | 997.6 | |
| 20260903061813 | 61 | 0.0 | 0.0 | 0.00 | 0.00 | 0.00 | 86 | 997.8 | |
| 20260903060238 | 60 | 0.0 | 0.0 | 0.00 | 0.00 | 0.00 | 88 | 998.0 | |
| 20260903054703 | 59 | 0.0 | 0.0 | 0.00 | 0.00 | 0.00 | 90 | 998.1 | |
| 20260903053128 | 59 | 0.0 | 0.0 | 0.00 | 0.00 | 0.00 | 90 | 998.3 | |
| 20260903051554 | 58 | 0.0 | 0.0 | 0.00 | 0.00 | 0.00 | 91 | 998.4 | |
| 20260903050019 | 57 | 0.0 | 0.0 | 0.00 | 0.00 | 0.00 | 92 | 998.4 | |
| 20260903044444 | 56 | 0.0 | 0.0 | 0.00 | 0.00 | 0.00 | 92 | 998.6 | |
| 20260903042909 | 56 | 0.0 | 0.0 | 0.00 | 0.00 | 0.00 | 93 | 998.6 | |
| 20260903041334 | 55 | 0.0 | 0.0 | 0.00 | 0.00 | 0.00 | 93 | 998.6 | |
| 20260903035759 | 55 | 0.0 | 0.0 | 0.00 | 0.00 | 0.00 | 93 | 998.6 | |
| 20260903034224 | 54 | 0.0 | 0.0 | 0.00 | 0.00 | 0.00 | 93 | 998.6 | |
| 20260903032649 | 53 | 0.0 | 0.0 | 0.00 | 0.00 | 0.00 | 91 | 998.7 | |
| 20260903025540 | 55 | 0.0 | 0.0 | 0.00 | 0.00 | 0.00 | 90 | 998.8 | |
| 20260903024004 | 55 | 0.0 | 0.0 | 0.00 | 0.00 | 0.00 | 89 | 999.0 | |
| 20260903022430 | 55 | 0.0 | 0.0 | 0.00 | 0.00 | 0.00 | 89 | 999.2 | |
| 20260903020855 | 55 | 0.0 | 0.0 | 0.00 | 0.00 | 0.00 | 88 | 999.4 | |
| 20260903015320 | 55 | 0.0 | 0.0 | 0.00 | 0.00 | 0.00 | 88 | 999.5 | |
| 20260903013745 | 55 | 0.0 | 0.0 | 0.00 | 0.00 | 0.00 | 87 | 999.4 | |
| 20260903012210 | 56 | 0.0 | 0.0 | 0.00 | 0.00 | 0.00 | 86 | 999.4 | |
| 20260903010635 | 55 | 0.0 | 0.0 | 0.00 | 0.00 | 0.00 | 85 | 999.5 | |
| 20260903005100 | 56 | 0.0 | 0.0 | 0.00 | 0.00 | 0.00 | 84 | 999.4 | |
| 20260903003525 | 57 | 0.0 | 0.0 | 0.00 | 0.00 | 0.00 | 83 | 999.5 | |
| 20260903001950 | 57 | 0.0 | 0.0 | 0.00 | 0.00 | 0.00 | 82 | 999.5 | |
| 20260903000417 | 57 | 0.0 | 0.0 | 0.00 | 0.00 | 0.00 | 82 | 999.6 | |
| 20260902234840 | 58 | 0.0 | 0.0 | 0.00 | 0.00 | 0.00 | 81 | 999.8 | |
| 20260902233305 | 58 | 0.0 | 0.0 | 0.00 | 0.00 | 0.00 | 80 | 999.9 | |
| 20260902231731 | 58 | 0.0 | 0.0 | 0.00 | 0.00 | 0.00 | 80 | 1000.0 | |
| 20260902230156 | 58 | 0.0 | 0.0 | 0.00 | 0.00 | 0.00 | 79 | 1000.1 | |
| 20260902224621 | 58 | 0.0 | 0.0 | 0.00 | 0.00 | 0.00 | 79 | 1000.1 | |
| 20260902223046 | 57 | 0.0 | 0.0 | 0.00 | 0.00 | 0.00 | 78 | 1000.1 | |
| 20260902221511 | 58 | 0.0 | 0.0 | 0.00 | 0.00 | 0.00 | 77 | 1000.2 | |
| 20260902215936 | 58 | 0.0 | 0.0 | 0.00 | 0.00 | 0.00 | 76 | 1000.1 | |
| 20260902214401 | 58 | 0.0 | 0.0 | 0.00 | 0.00 | 0.00 | 76 | 1000.1 | |
| 20260902212826 | 58 | 0.0 | 0.0 | 0.00 | 0.00 | 0.00 | 75 | 1000.1 | |
| 20260902211251 | 58 | 0.0 | 0.0 | 0.00 | 0.00 | 0.00 | 74 | 1000.2 | |
| 20260902205716 | 58 | 0.0 | 0.0 | 0.00 | 0.00 | 0.00 | 74 | 1000.1 | |
| 20260902204141 | 58 | 0.0 | 0.0 | 0.00 | 0.00 | 0.00 | 73 | 1000.1 | |
| 20260902202607 | 58 | 0.0 | 0.0 | 0.00 | 0.00 | 0.00 | 73 | 1000.1 | |
| 20260902201032 | 57 | 0.0 | 0.0 | 0.00 | 0.00 | 0.00 | 72 | 1000.1 | |
| 20260902195457 | 57 | 0.0 | 0.0 | 0.00 | 0.00 | 0.00 | 70 | 1000.1 | |
| 20260902193922 | 58 | 0.0 | 0.0 | 0.00 | 0.00 | 0.00 | 69 | 1000.1 | |
| 20260902192347 | 58 | 0.0 | 0.0 | 0.00 | 0.00 | 0.00 | 67 | 1000.2 | |
| 20260902190812 | 59 | 0.0 | 0.0 | 0.00 | 0.00 | 0.00 | 65 | 100.0 | |
| 20260902185237 | 60 | 0.0 | 0.0 | 0.00 | 0.00 | 0.00 | 64 | 999.9 | |
| 20260902183702 | 61 | 0.0 | 0.0 | 0.00 | 0.00 | 0.00 | 62 | 999.8 | |
| 20260902182127 | 63 | 0.0 | 0.0 | 0.00 | 0.00 | 0.00 | 60 | 999.6 | |
| 20260902180552 | 65 | 0.0 | 0.0 | 0.00 | 0.00 | 0.00 | 58 | 999.4 | |
| 20260902175017 | 68 | 0.0 | 0.0 | 0.00 | 0.00 | 0.00 | 55 | 999.4 | |
| 20260902173443 | 73 | 0.0 | 0.0 | 0.00 | 0.00 | 0.00 | 53 | 999.3 | |
| 20260902171908 | 74 | 0.0 | 0.0 | 0.00 | 0.00 | 0.00 | 52 | 999.2 | |
| 20260902170333 | 75 | 0.0 | 0.0 | 0.00 | 0.00 | 0.00 | 52 | 999.3 | |
| 20260902164758 | 75 | 0.0 | 0.0 | 0.00 | 0.00 | 0.00 | 52 | 999.1 | |
| 20260902163223 | 77 | 0.0 | 0.0 | 0.00 | 0.00 | 0.00 | 51 | 999.1 | |
| 20260902161648 | 77 | 0.0 | 0.0 | 0.00 | 0.00 | 0.00 | 51 | 999.2 | |
| 20260902160113 | 77 | 0.0 | 0.0 | 0.00 | 0.00 | 0.00 | 51 | 999.3 | |
| 20260902154538 | 76 | 0.0 | 0.0 | 0.00 | 0.00 | 0.00 | 52 | 999.3 | |
| 20260902153003 | 78 | 0.0 | 0.0 | 0.00 | 0.00 | 0.00 | 51 | 999.3 | |
| 20260902151428 | 76 | 0.0 | 0.0 | 0.00 | 0.00 | 0.00 | 52 | 999.3 | |
| 20260902145853 | 76 | 0.0 | 0.0 | 0.00 | 0.00 | 0.00 | 52 | 999.4 | |
| 20260902144318 | 75 | 0.0 | 0.0 | 0.00 | 0.00 | 0.00 | 53 | 999.4 | |
| 20260902142744 | 76 | 0.0 | 0.0 | 0.00 | 0.00 | 0.00 | 53 | 999.5 | |
| 20260902141209 | 75 | 0.0 | 0.0 | 0.00 | 0.00 | 0.00 | 55 | 999.5 | |
| 20260902135634 | 75 | 0.0 | 0.0 | 0.00 | 0.00 | 0.00 | 55 | 999.4 | |
| 20260902134059 | 76 | 0.0 | 0.0 | 0.00 | 0.00 | 0.00 | 55 | 999.4 | |
| 20260902132524 | 76 | 0.0 | 0.0 | 0.00 | 0.00 | 0.00 | 56 | 999.3 | |
| 20260902130949 | 78 | 0.0 | 0.0 | 0.00 | 0.00 | 0.00 | 54 | 999.4 | |
| 20260902125414 | 76 | 0.0 | 0.0 | 0.00 | 0.00 | 0.00 | 58 | 999.3 | |
| 20260902123839 | 75 | 0.0 | 0.0 | 0.00 | 0.00 | 0.00 | 59 | 999.5 | |
| 20260902122305 | 80 | 0.0 | 0.0 | 0.00 | 0.00 | 0.00 | 57 | 999.4 | |
| 20260902120729 | 80 | 0.0 | 0.0 | 0.00 | 0.00 | 0.00 | 58 | 999.8 | |
| 20260902115154 | 82 | 0.0 | 0.0 | 0.00 | 0.00 | 0.00 | 59 | 999.7 | |
| 20260902113619 | 81 | 0.0 | 0.0 | 0.00 | 0.00 | 0.00 | 60 | 999.8 | |
| 20260902112045 | 81 | 0.0 | 0.0 | 0.00 | 0.00 | 0.00 | 62 | 999.7 | |
| 20260902110510 | 79 | 0.0 | 0.0 | 0.00 | 0.00 | 0.00 | 65 | 999.8 |